< < Back
Terminal Aerodrome Forecast


Current Version              Previous Versions:   1  2  3  4  5  6  7  8  9  

Terminal Aerodrome Forecast

391
FTUS44 KBMX 191100
TAFMGM
TAF
KMGM 191137Z 1912/2012 03004KT P6SM BKN250
     FM191600 11006KT P6SM SCT250=

Latest METAR

817
SAUS80 KWBC 200300 RRA
MTRMGM
METAR KMGM 200253Z 09005KT 10SM CLR 23/18 A3005 RMK AO2 SLP173 60000
T02330178 53020


USA.gov is the U.S. government's official web portal to all federal, state and local government web resources and services.